createdAt,value
2019-04-23T10:38:26.651Z,12
2019-04-23T10:43:30.761Z,11
2019-04-23T10:48:49.008Z,12
2019-04-23T10:59:03.015Z,11
2019-04-23T11:04:04.160Z,12
2019-04-23T11:09:27.033Z,12
2019-04-23T11:19:14.046Z,13
2019-04-23T11:24:29.288Z,11
2019-04-23T11:29:25.434Z,11
2019-04-23T11:34:33.464Z,12
2019-04-23T11:39:30.740Z,12
2019-04-23T11:44:39.956Z,14
2019-04-23T11:49:44.673Z,13
2019-04-23T11:54:30.114Z,13
2019-04-23T11:59:35.712Z,13
2019-04-23T12:09:53.248Z,13
2019-04-23T12:29:45.996Z,14
2019-04-23T12:34:59.292Z,15
2019-04-23T12:39:58.128Z,15
2019-04-23T12:55:06.612Z,15
2019-04-23T13:00:04.321Z,16
2019-04-23T13:10:08.032Z,14
2019-04-23T13:15:07.111Z,15
2019-04-23T13:20:16.756Z,17
2019-04-23T13:25:17.224Z,16
2019-04-23T13:30:22.629Z,14
2019-04-23T13:45:46.895Z,16
2019-04-23T13:50:36.721Z,17
2019-04-23T13:55:26.484Z,13
2019-04-23T14:00:44.284Z,16
2019-04-23T14:05:32.822Z,16
2019-04-23T14:10:37.640Z,14
2019-04-23T14:15:44.528Z,16
2019-04-23T14:20:38.162Z,15
2019-04-23T14:25:59.426Z,15
2019-04-23T14:30:53.229Z,16
2019-04-23T14:41:04.393Z,15
2019-04-23T14:46:18.344Z,15
2019-04-23T14:50:56.695Z,16
2019-04-23T15:01:15.402Z,15
2019-04-23T15:11:20.162Z,15
2019-04-23T15:16:15.131Z,14
2019-04-23T15:21:35.965Z,12
2019-04-23T15:31:18.779Z,13
2019-04-23T15:36:31.863Z,14
2019-04-23T15:41:23.063Z,12
2019-04-23T15:46:25.044Z,13
2019-04-23T15:51:27.690Z,12
2019-04-23T16:01:35.891Z,11
2019-04-23T16:06:07.839Z,12
2019-04-23T16:16:49.682Z,11
2019-04-23T16:21:53.299Z,13
2019-04-23T16:26:46.742Z,12
2019-04-23T16:31:44.369Z,10
2019-04-23T16:36:43.570Z,11
2019-04-23T16:41:53.898Z,11
2019-04-23T16:46:55.665Z,10
2019-04-23T16:51:53.688Z,10
2019-04-23T17:02:07.685Z,10
2019-04-23T17:07:01.975Z,10
2019-04-23T17:16:52.898Z,11
2019-04-23T17:22:09.301Z,9
2019-04-23T17:27:16.290Z,10
2019-04-23T17:32:09.639Z,8
2019-04-23T17:47:26.477Z,10
2019-04-23T17:52:26.041Z,8
2019-04-23T17:57:27.891Z,8
2019-04-23T18:02:53.815Z,9
2019-04-23T18:07:42.012Z,8
2019-04-23T18:12:43.372Z,7
2019-04-23T18:27:37.044Z,6
2019-04-23T18:32:50.728Z,7
2019-04-23T18:37:41.100Z,7
2019-04-23T18:42:40.143Z,7
2019-04-23T18:47:48.559Z,7
2019-04-23T18:52:55.384Z,7
2019-04-23T18:57:56.691Z,8
2019-04-23T19:03:09.121Z,9
2019-04-23T19:13:05.307Z,9
2019-04-23T19:23:05.925Z,9
2019-04-23T19:28:27.968Z,10
2019-04-23T19:33:19.948Z,8
2019-04-23T19:38:15.024Z,9
2019-04-23T19:43:24.725Z,10
2019-04-23T19:48:23.017Z,8
2019-04-23T19:53:31.515Z,10
2019-04-23T20:03:35.533Z,7
2019-04-23T20:08:45.723Z,10
2019-04-23T20:13:44.069Z,11
2019-04-23T20:18:45.895Z,10
2019-04-23T20:34:00.890Z,9
2019-04-23T20:38:51.176Z,10
2019-04-23T20:43:55.375Z,9
2019-04-23T20:48:51.752Z,11
2019-04-23T20:54:01.800Z,10
2019-04-23T20:58:59.284Z,10
2019-04-23T21:03:59.812Z,11
2019-04-23T21:09:16.798Z,11
2019-04-23T21:14:14.916Z,12
2019-04-23T21:19:01.855Z,9
2019-04-23T21:23:59.882Z,11
2019-04-23T21:29:03.708Z,13
2019-04-23T21:39:14.966Z,12
2019-04-23T21:44:15.912Z,16
2019-04-23T21:49:22.930Z,14
2019-04-23T21:54:19.579Z,17
2019-04-23T21:59:15.767Z,12
2019-04-23T22:04:31.250Z,18
2019-04-23T22:09:34.055Z,17
2019-04-23T22:14:31.810Z,17
2019-04-23T22:19:37.582Z,18
2019-04-23T22:24:42.454Z,17
2019-04-23T22:29:42.965Z,20
2019-04-23T22:34:46.678Z,17
2019-04-23T22:39:45.200Z,18
2019-04-23T22:44:57.245Z,15
2019-04-23T22:49:49.962Z,21
2019-04-23T22:55:07.166Z,19
2019-04-23T23:00:07.810Z,22
2019-04-23T23:05:07.123Z,18
2019-04-23T23:15:07.811Z,18
2019-04-23T23:20:13.766Z,22
2019-04-23T23:25:04.313Z,18
2019-04-23T23:30:08.397Z,19
2019-04-23T23:40:20.179Z,23
2019-04-23T23:45:25.094Z,21
2019-04-23T23:50:24.747Z,20
2019-04-23T23:55:18.260Z,19
